Strona główna
METAR-TAF:

METAR-TAF

Lotnisko :

Port lotniczy São Paulo-Congonhas

Sao Paulo, São Paulo, Brazylia

Szerokość geograficzna: 23-37S, Długość geograficzna: 046-39W, wysokość: 803 m

Aktualna obserwacja pogody

Raport powstał 32 minut temu, godzina 00:00 UTC
Wiatr 11 kt od południe
Temperatura 20°C
Wilgotność 83%
Ciśnienie 1021 hPa
Widzialność: 4000 m
Rozproszone chmury na wysokości 500 ft
Zachmurzenie całkowite na wysokości 700 ft
słaby mżawka, zamglenie

METAR: SBSP 130000Z 17011KT 4000 -DZ BR SCT005 OVC007 20/17 Q1021

czas: 21:32 (00:32 UTC)

Prognoza

Raport powstał 2 godziny i 32 minut temu, godzina 22:00 UTC
Prognoza ważna od 13 godzina 00 UTC do 13 godzina 12 UTC
Wiatr 8 kt od południe
Widzialność: 8000 m
Przerywane chmury na wysokości 800 ft
Prawdopodobieństwo 30%
od 13 godzina 08 UTC do 13 godzina 11 UTC
Widzialność: 5000 m
Przerywane chmury na wysokości 700 ft
zamglenie

TAF: SBSP 122200Z 1300/1312 17008KT 8000 BKN008 TX21/1300Z TN18/1308Z PROB30 1308/1311 5000 BR BKN007 RMK PGQ

Obserwacja i prognoza pogody dla ponad 4000 lotnisk (raport METAR i TAF).

Dostępne stacje oznaczono żółtymi i czerwonymi punktami na mapie.

Najedź kursorem aby zobaczyć nazwę stacji.

Kliknij aby zobaczyć obserwacje i prognozy pogody.

Aby zmienić mapę: kliknij na zielony przycisk z czarnym krzyżykiem, aby powiększyć; na zielony przycisk z myślnikiem, aby pomniejszyć; na zielone strzałki, aby przejść do map sąsiednich.


METAR-TAF: